createdAt,value
2022-08-03T00:02:29.267Z,76.61
2022-08-03T00:05:33.453Z,76.14
2022-08-03T00:08:40.113Z,77.24
2022-08-03T00:11:42.906Z,77.33
2022-08-03T00:14:45.530Z,76.35
2022-08-03T00:17:53.287Z,77.01
2022-08-03T00:20:56.546Z,78.16
2022-08-03T00:23:58.970Z,78.54
2022-08-03T00:27:01.379Z,77.49
2022-08-03T00:30:04.013Z,76.61
2022-08-03T00:33:06.607Z,76.73
2022-08-03T00:36:10.665Z,76.83
2022-08-03T00:39:13.067Z,77.51
2022-08-03T00:42:16.011Z,77.44
2022-08-03T00:45:19.908Z,77.58
2022-08-03T00:48:33.370Z,76.85
2022-08-03T00:51:36.335Z,77.46
2022-08-03T00:54:38.912Z,77.36
2022-08-03T00:57:42.999Z,76.95
2022-08-03T01:00:45.526Z,76.78
2022-08-03T01:03:47.949Z,77.01
2022-08-03T01:07:10.693Z,77.46
2022-08-03T01:10:23.352Z,78.49
2022-08-03T01:14:03.537Z,78.04
2022-08-03T01:17:31.995Z,77.39
2022-08-03T01:20:36.968Z,77.24
2022-08-03T01:23:42.225Z,77.63
2022-08-03T01:27:05.530Z,77.64
2022-08-03T01:30:09.195Z,77.83
2022-08-03T01:33:42.418Z,77.88
2022-08-03T01:36:51.361Z,77.35
2022-08-03T01:39:56.501Z,77.08
2022-08-03T01:43:02.143Z,77.28
2022-08-03T01:46:05.503Z,78.17
2022-08-03T01:49:13.309Z,78.48
2022-08-03T01:52:19.646Z,77.82
2022-08-03T01:55:23.816Z,76.86
2022-08-03T01:58:28.620Z,77.94
2022-08-03T02:02:15.494Z,78.20
2022-08-03T02:04:58.718Z,77.97
2022-08-03T02:08:04.810Z,78.87
2022-08-03T02:11:07.412Z,80.54
2022-08-03T02:14:11.287Z,79.86
2022-08-03T02:17:14.698Z,79.32
2022-08-03T02:20:18.355Z,78.81
2022-08-03T02:23:20.986Z,78.59
2022-08-03T02:26:24.562Z,78.90
2022-08-03T02:29:40.332Z,79.43
2022-08-03T02:32:48.902Z,78.90
2022-08-03T02:35:52.809Z,78.30
2022-08-03T02:38:59.300Z,77.40
2022-08-03T02:42:05.588Z,79.18
2022-08-03T02:45:14.677Z,79.94
2022-08-03T02:48:20.499Z,80.04
2022-08-03T02:51:24.044Z,81.33
2022-08-03T02:54:27.843Z,80.47
2022-08-03T02:57:33.651Z,80.63
2022-08-03T03:00:38.027Z,79.84
2022-08-03T03:03:44.845Z,78.96
2022-08-03T03:06:48.925Z,79.08
2022-08-03T03:09:52.036Z,79.21
2022-08-03T03:12:57.176Z,79.02
2022-08-03T03:16:06.221Z,79.25
2022-08-03T03:19:11.526Z,79.29
2022-08-03T03:22:21.889Z,79.89
2022-08-03T03:25:24.694Z,82.44
2022-08-03T03:28:27.418Z,81.70
2022-08-03T03:31:30.216Z,82.43
2022-08-03T03:34:33.708Z,81.07
2022-08-03T03:37:36.102Z,79.82
2022-08-03T03:40:39.286Z,79.98
2022-08-03T03:43:41.836Z,81.46
2022-08-03T03:46:44.531Z,81.35
2022-08-03T03:49:47.183Z,83.54
2022-08-03T03:52:50.834Z,82.35
2022-08-03T03:56:02.472Z,81.28
2022-08-03T03:59:05.466Z,82.72
2022-08-03T04:02:09.227Z,84.09
2022-08-03T04:05:30.569Z,83.30
2022-08-03T04:08:51.722Z,81.58
2022-08-03T04:11:56.971Z,80.41
2022-08-03T04:15:01.282Z,82.68
2022-08-03T04:18:04.577Z,81.51
2022-08-03T04:21:11.027Z,80.52
2022-08-03T04:24:14.292Z,80.40
2022-08-03T04:27:20.875Z,80.26
2022-08-03T04:30:23.565Z,80.68
2022-08-03T04:33:29.608Z,80.06
2022-08-03T04:36:37.293Z,80.17
2022-08-03T04:39:43.362Z,79.98
2022-08-03T04:42:47.042Z,79.32
2022-08-03T04:45:52.368Z,78.38
2022-08-03T04:49:02.493Z,77.76
2022-08-03T04:52:07.330Z,77.43
2022-08-03T04:55:10.016Z,75.83
2022-08-03T04:58:12.761Z,75.93
2022-08-03T05:01:16.564Z,75.92
2022-08-03T05:04:19.671Z,76.64
2022-08-03T05:07:25.124Z,76.62
2022-08-03T05:10:30.160Z,76.02
2022-08-03T05:13:32.620Z,75.97
2022-08-03T05:16:35.063Z,74.71
2022-08-03T05:19:37.662Z,72.68
2022-08-03T05:22:42.790Z,71.44
2022-08-03T05:25:49.568Z,69.53
2022-08-03T05:28:53.148Z,67.70
2022-08-03T05:31:55.980Z,66.32
2022-08-03T05:34:58.338Z,65.69
2022-08-03T05:38:01.647Z,64.85
2022-08-03T05:41:23.292Z,64.59
2022-08-03T05:44:26.950Z,64.05
2022-08-03T05:47:29.282Z,63.33
2022-08-03T05:50:32.471Z,63.09
2022-08-03T05:53:35.243Z,62.89
2022-08-03T05:56:37.741Z,62.05
2022-08-03T05:59:40.151Z,62.15
2022-08-03T06:02:58.252Z,61.67
2022-08-03T06:06:00.839Z,60.76
2022-08-03T06:09:03.494Z,59.79
2022-08-03T06:12:05.940Z,59.56
2022-08-03T06:15:11.285Z,58.93
2022-08-03T06:18:14.044Z,58.84
2022-08-03T06:21:16.602Z,58.85
2022-08-03T06:24:19.017Z,58.08
2022-08-03T06:27:36.715Z,57.74
2022-08-03T06:30:43.392Z,56.34
2022-08-03T06:33:48.476Z,56.15
2022-08-03T06:37:08.115Z,55.30
2022-08-03T06:40:13.971Z,55.46
2022-08-03T06:43:16.460Z,55.96
2022-08-03T06:46:19.103Z,55.60
2022-08-03T06:49:21.619Z,55.68
2022-08-03T06:52:38.429Z,54.36
2022-08-03T06:55:42.493Z,53.30
2022-08-03T06:58:44.979Z,52.43
2022-08-03T07:01:50.354Z,52.04
2022-08-03T07:04:52.806Z,51.03
2022-08-03T07:07:57.419Z,49.89
2022-08-03T07:10:59.794Z,50.52
2022-08-03T07:14:02.202Z,49.45
2022-08-03T07:17:11.508Z,49.44
2022-08-03T07:20:15.329Z,48.31
2022-08-03T07:23:19.079Z,48.33
2022-08-03T07:26:21.886Z,47.06
2022-08-03T07:29:25.354Z,46.41
2022-08-03T07:32:31.103Z,46.98
2022-08-03T07:35:33.609Z,45.79
2022-08-03T07:38:37.113Z,45.09
2022-08-03T07:41:39.467Z,45.64
2022-08-03T07:44:44.201Z,46.24
2022-08-03T07:47:53.296Z,44.84
2022-08-03T07:50:56.157Z,44.97
2022-08-03T07:53:59.192Z,44.85
2022-08-03T07:57:01.562Z,45.63
2022-08-03T08:00:14.292Z,45.64
2022-08-03T08:03:16.883Z,44.98
2022-08-03T08:06:19.432Z,44.11
2022-08-03T08:09:23.528Z,43.44
2022-08-03T08:12:25.887Z,43.87
2022-08-03T08:15:28.337Z,43.13
2022-08-03T08:18:30.909Z,42.81
2022-08-03T08:21:53.489Z,40.51
2022-08-03T08:24:55.653Z,40.60
2022-08-03T08:28:29.706Z,38.93
2022-08-03T08:31:21.257Z,38.54
2022-08-03T08:34:23.643Z,37.42
2022-08-03T08:37:26.077Z,36.28
2022-08-03T08:40:28.692Z,36.01
2022-08-03T08:43:31.130Z,33.99
2022-08-03T08:46:34.212Z,35.14
2022-08-03T08:49:38.952Z,34.96
2022-08-03T08:52:43.569Z,35.39
2022-08-03T08:55:56.878Z,34.95
2022-08-03T08:59:02.943Z,35.07
2022-08-03T09:02:06.242Z,34.74
2022-08-03T09:05:13.329Z,35.90
2022-08-03T09:08:15.867Z,32.69
2022-08-03T09:11:53.198Z,30.64
2022-08-03T09:15:07.273Z,28.21
2022-08-03T09:18:09.565Z,28.45
2022-08-03T09:21:33.981Z,31.15
2022-08-03T09:24:41.619Z,30.61
2022-08-03T09:27:45.853Z,29.53
2022-08-03T09:31:11.224Z,28.93
2022-08-03T09:34:16.471Z,28.09
2022-08-03T09:37:21.213Z,29.01
2022-08-03T09:40:45.261Z,29.07
2022-08-03T09:43:47.732Z,29.36
2022-08-03T09:46:52.257Z,29.83
2022-08-03T09:50:08.579Z,27.84
2022-08-03T09:53:12.507Z,29.37
2022-08-03T09:56:35.783Z,29.30
2022-08-03T09:59:39.172Z,29.15
2022-08-03T10:02:45.225Z,29.69
2022-08-03T10:05:47.652Z,31.83
2022-08-03T10:09:10.886Z,30.65
2022-08-03T10:12:14.094Z,29.94
2022-08-03T10:16:23.718Z,29.07
2022-08-03T10:18:39.190Z,28.52
2022-08-03T10:21:48.041Z,28.40
2022-08-03T10:24:58.458Z,28.53
2022-08-03T10:28:04.511Z,28.59
2022-08-03T10:31:08.250Z,27.38
2022-08-03T10:34:35.204Z,26.57
2022-08-03T10:37:57.156Z,25.65
2022-08-03T10:41:02.178Z,25.75
2022-08-03T10:44:15.817Z,24.97
2022-08-03T10:47:18.682Z,24.69
2022-08-03T10:50:24.320Z,25.25
2022-08-03T10:53:47.732Z,25.10
2022-08-03T10:57:16.870Z,25.01
2022-08-03T11:00:25.211Z,24.15
2022-08-03T11:03:27.632Z,24.67
2022-08-03T11:06:37.160Z,25.05
2022-08-03T11:09:48.826Z,25.02
2022-08-03T11:12:51.429Z,24.29
2022-08-03T11:16:00.522Z,25.13
2022-08-03T11:19:12.144Z,24.44
2022-08-03T11:22:22.131Z,24.05
2022-08-03T11:25:53.970Z,23.19
2022-08-03T11:28:48.396Z,23.87
2022-08-03T11:31:51.778Z,23.55
2022-08-03T11:35:13.275Z,22.81
2022-08-03T11:38:15.930Z,23.21
2022-08-03T11:41:42.728Z,22.95
2022-08-03T11:44:48.703Z,22.86
2022-08-03T11:47:55.197Z,22.64
2022-08-03T11:50:57.775Z,22.47
2022-08-03T11:54:05.505Z,22.00
2022-08-03T11:57:07.908Z,22.22
2022-08-03T12:00:32.703Z,22.33
2022-08-03T12:03:35.604Z,23.13
2022-08-03T12:06:56.328Z,23.27
2022-08-03T12:10:13.110Z,22.92
2022-08-03T12:14:10.468Z,22.65
2022-08-03T12:16:38.314Z,21.78
2022-08-03T12:19:43.005Z,22.51
2022-08-03T12:22:45.485Z,21.57
2022-08-03T12:25:49.583Z,21.62
2022-08-03T12:28:52.179Z,22.59
2022-08-03T12:31:56.100Z,23.00
2022-08-03T12:35:01.364Z,22.34
2022-08-03T12:38:06.735Z,22.04
2022-08-03T12:41:16.105Z,22.38
2022-08-03T12:44:18.600Z,22.91
2022-08-03T12:47:21.249Z,22.63
2022-08-03T12:50:41.715Z,22.62
2022-08-03T12:53:52.617Z,22.90
2022-08-03T12:57:07.032Z,22.70
2022-08-03T13:00:21.248Z,22.62
2022-08-03T13:03:39.044Z,23.89
2022-08-03T13:06:44.644Z,23.51
2022-08-03T13:09:51.119Z,23.07
2022-08-03T13:12:53.494Z,23.58
2022-08-03T13:15:55.891Z,22.74
2022-08-03T13:18:58.286Z,23.83
2022-08-03T13:22:04.362Z,23.51
2022-08-03T13:25:08.586Z,24.39
2022-08-03T13:28:14.138Z,24.14
2022-08-03T13:31:16.912Z,23.89
2022-08-03T13:34:22.905Z,23.87
2022-08-03T13:37:27.091Z,23.08
2022-08-03T13:40:36.739Z,23.70
2022-08-03T13:43:44.238Z,22.68
2022-08-03T13:46:49.344Z,23.93
2022-08-03T13:49:59.389Z,24.74
2022-08-03T13:53:04.454Z,25.37
2022-08-03T13:56:09.889Z,24.93
2022-08-03T13:59:12.267Z,24.62
2022-08-03T14:02:14.856Z,23.83
2022-08-03T14:05:17.440Z,24.74
2022-08-03T14:08:19.838Z,25.18
2022-08-03T14:12:08.467Z,24.72
2022-08-03T14:14:51.205Z,24.21
2022-08-03T14:17:53.568Z,24.65
2022-08-03T14:21:03.447Z,24.59
2022-08-03T14:24:08.257Z,24.32
2022-08-03T14:27:10.708Z,24.19
2022-08-03T14:30:13.481Z,24.97
2022-08-03T14:33:16.046Z,24.49
2022-08-03T14:36:18.655Z,25.15
2022-08-03T14:39:23.088Z,25.48
2022-08-03T14:42:25.725Z,26.13
2022-08-03T14:45:28.236Z,25.58
2022-08-03T14:50:34.601Z,25.65
2022-08-03T14:51:54.006Z,24.92
2022-08-03T14:54:56.786Z,25.47
2022-08-03T14:58:00.167Z,26.22
2022-08-03T15:01:02.649Z,26.10
2022-08-03T15:04:05.449Z,26.65
2022-08-03T15:07:07.908Z,26.46
2022-08-03T15:10:10.291Z,27.18
2022-08-03T15:13:13.305Z,26.48
2022-08-03T15:16:15.698Z,26.84
2022-08-03T15:20:00.881Z,28.01
2022-08-03T15:22:40.812Z,29.37
2022-08-03T15:26:30.331Z,28.39
2022-08-03T15:29:08.164Z,28.84
2022-08-03T15:32:10.536Z,29.29
2022-08-03T15:35:19.413Z,29.16
2022-08-03T15:38:25.676Z,28.25
2022-08-03T15:41:28.749Z,28.07
2022-08-03T15:44:31.164Z,28.87
2022-08-03T15:47:33.523Z,29.53
2022-08-03T15:50:36.159Z,29.00
2022-08-03T15:53:41.369Z,28.87
2022-08-03T15:56:46.570Z,29.33
2022-08-03T15:59:48.957Z,28.96
2022-08-03T16:02:55.711Z,30.34
2022-08-03T16:05:59.287Z,29.43
2022-08-03T16:09:01.760Z,29.37
2022-08-03T16:12:04.500Z,29.36
2022-08-03T16:15:07.913Z,28.79
2022-08-03T16:18:10.289Z,31.36
2022-08-03T16:21:14.811Z,31.59
2022-08-03T16:24:27.727Z,32.75
2022-08-03T16:27:56.653Z,31.98
2022-08-03T16:30:52.987Z,30.92
2022-08-03T16:33:55.371Z,30.98
2022-08-03T16:36:57.934Z,30.84
2022-08-03T16:40:00.418Z,31.01
2022-08-03T16:43:18.608Z,31.28
2022-08-03T16:46:22.659Z,31.65
2022-08-03T16:49:54.940Z,31.78
2022-08-03T16:52:48.446Z,32.17
2022-08-03T16:55:54.372Z,31.80
2022-08-03T16:58:56.939Z,31.93
2022-08-03T17:02:04.357Z,33.31
2022-08-03T17:05:10.541Z,33.61
2022-08-03T17:08:13.039Z,33.89
2022-08-03T17:11:15.469Z,33.68
2022-08-03T17:14:22.771Z,36.17
2022-08-03T17:17:47.720Z,37.07
2022-08-03T17:20:58.272Z,37.90
2022-08-03T17:24:18.752Z,39.62
2022-08-03T17:28:51.104Z,40.13
2022-08-03T17:31:23.555Z,41.23
2022-08-03T17:34:34.684Z,41.73
2022-08-03T17:37:57.463Z,42.85
2022-08-03T17:41:01.411Z,43.96
2022-08-03T17:44:31.965Z,45.49
2022-08-03T17:47:42.529Z,47.29
2022-08-03T17:50:57.322Z,47.08
2022-08-03T17:54:18.131Z,47.98
2022-08-03T17:58:01.313Z,48.39
2022-08-03T18:02:00.651Z,49.05
2022-08-03T18:04:41.865Z,49.19
2022-08-03T18:07:59.252Z,50.55
2022-08-03T18:11:09.752Z,50.95
2022-08-03T18:14:27.433Z,52.59
2022-08-03T18:17:58.222Z,53.75
2022-08-03T18:20:57.281Z,53.49
2022-08-03T18:24:03.003Z,53.62
2022-08-03T18:27:06.516Z,53.60
2022-08-03T18:30:09.379Z,55.00
2022-08-03T18:34:17.626Z,56.70
2022-08-03T18:36:39.668Z,58.54
2022-08-03T18:39:50.029Z,60.19
2022-08-03T18:42:55.739Z,60.70
2022-08-03T18:46:03.379Z,61.57
2022-08-03T18:49:22.802Z,61.64
2022-08-03T18:52:28.142Z,62.09
2022-08-03T18:55:35.483Z,62.50
2022-08-03T18:58:51.438Z,63.16
2022-08-03T19:02:01.226Z,64.89
2022-08-03T19:05:09.456Z,64.11
2022-08-03T19:08:45.521Z,63.83
2022-08-03T19:12:14.016Z,64.46
2022-08-03T19:15:16.507Z,65.13
2022-08-03T19:18:24.068Z,64.27
2022-08-03T19:21:30.222Z,64.17
2022-08-03T19:24:35.686Z,64.72
2022-08-03T19:27:43.494Z,65.81
2022-08-03T19:30:53.589Z,66.64
2022-08-03T19:33:58.818Z,69.32
2022-08-03T19:37:02.466Z,68.76
2022-08-03T19:40:05.497Z,68.96
2022-08-03T19:43:53.533Z,71.08
2022-08-03T19:47:06.668Z,71.34
2022-08-03T19:50:13.745Z,71.35
2022-08-03T19:53:17.390Z,73.21
2022-08-03T19:56:24.213Z,72.03
2022-08-03T19:59:27.553Z,72.67
2022-08-03T20:02:29.996Z,74.20
2022-08-03T20:05:44.945Z,75.74
2022-08-03T20:08:55.412Z,75.08
2022-08-03T20:12:01.369Z,74.78
2022-08-03T20:15:04.898Z,73.64
2022-08-03T20:18:07.587Z,72.60
2022-08-03T20:21:23.257Z,72.24
2022-08-03T20:24:28.270Z,70.16
2022-08-03T20:28:07.939Z,71.52
2022-08-03T20:31:02.412Z,73.07
2022-08-03T20:34:06.959Z,72.45
2022-08-03T20:37:12.052Z,73.08
2022-08-03T20:40:14.602Z,73.45
2022-08-03T20:43:17.081Z,73.06
2022-08-03T20:46:31.015Z,74.01
2022-08-03T20:49:45.693Z,74.99
2022-08-03T20:52:49.856Z,76.27
2022-08-03T20:56:02.093Z,75.13
2022-08-03T20:59:07.208Z,74.81
2022-08-03T21:02:19.831Z,75.89
2022-08-03T21:05:51.491Z,75.78
2022-08-03T21:09:05.132Z,77.39
2022-08-03T21:12:15.445Z,79.10
2022-08-03T21:16:12.731Z,78.47
2022-08-03T21:18:51.870Z,76.48
2022-08-03T21:21:55.403Z,75.52
2022-08-03T21:24:58.501Z,75.92
2022-08-03T21:28:01.751Z,74.96
2022-08-03T21:31:04.554Z,74.01
2022-08-03T21:34:07.486Z,74.99
2022-08-03T21:37:11.924Z,75.56
2022-08-03T21:40:17.459Z,73.62
2022-08-03T21:43:19.857Z,73.10
2022-08-03T21:46:23.033Z,74.06
2022-08-03T21:50:07.205Z,73.46
2022-08-03T21:52:51.835Z,73.01
2022-08-03T21:56:03.472Z,72.89
2022-08-03T21:59:08.026Z,73.53
2022-08-03T22:02:22.797Z,74.86
2022-08-03T22:05:42.968Z,75.23
2022-08-03T22:08:49.549Z,76.15
2022-08-03T22:11:54.295Z,74.72
2022-08-03T22:15:00.256Z,74.35
2022-08-03T22:18:04.365Z,74.76
2022-08-03T22:21:09.143Z,75.30
2022-08-03T22:24:11.745Z,75.65
2022-08-03T22:27:32.221Z,76.82
2022-08-03T22:30:35.007Z,78.07
2022-08-03T22:33:38.431Z,77.49
2022-08-03T22:36:40.970Z,78.84
2022-08-03T22:39:44.610Z,76.66
2022-08-03T22:42:50.501Z,76.84
2022-08-03T22:46:10.628Z,76.05
2022-08-03T22:49:16.682Z,75.16
2022-08-03T22:52:20.402Z,76.56
2022-08-03T22:55:25.183Z,76.32
2022-08-03T22:58:27.731Z,76.41
2022-08-03T23:01:36.103Z,77.17
2022-08-03T23:04:41.207Z,77.00
2022-08-03T23:07:45.728Z,76.78
2022-08-03T23:10:48.777Z,76.97
2022-08-03T23:13:54.177Z,78.50
2022-08-03T23:16:58.866Z,77.18
2022-08-03T23:20:08.987Z,77.02
2022-08-03T23:23:11.482Z,77.30
2022-08-03T23:26:17.287Z,76.84
2022-08-03T23:29:20.478Z,77.72
2022-08-03T23:32:25.912Z,78.27
2022-08-03T23:36:29.421Z,78.35
2022-08-03T23:39:09.706Z,78.79
2022-08-03T23:42:13.842Z,78.00
2022-08-03T23:45:19.757Z,78.07
2022-08-03T23:48:22.304Z,79.13
2022-08-03T23:51:33.513Z,78.03
2022-08-03T23:55:06.997Z,78.00
2022-08-03T23:58:21.039Z,78.45
